createdAt,value
2017-12-23T00:00:26.154Z,21.30
2017-12-23T00:03:02.073Z,19.57
2017-12-23T00:05:40.592Z,19.33
2017-12-23T00:08:13.124Z,18.63
2017-12-23T00:10:45.632Z,19.40
2017-12-23T00:13:18.140Z,18.90
2017-12-23T00:15:50.699Z,19.23
2017-12-23T00:18:33.197Z,19.50
2017-12-23T00:21:08.287Z,17.30
2017-12-23T00:23:41.062Z,16.30
2017-12-23T00:26:13.553Z,18.43
2017-12-23T00:28:46.065Z,17.37
2017-12-23T00:31:18.579Z,18.03
2017-12-23T00:33:52.457Z,17.77
2017-12-23T00:36:27.422Z,18.07
2017-12-23T00:39:08.829Z,16.77
2017-12-23T00:41:41.828Z,17.60
2017-12-23T00:44:14.320Z,17.67
2017-12-23T00:46:46.836Z,18.10
2017-12-23T00:49:19.340Z,16.90
2017-12-23T00:51:51.884Z,16.97
2017-12-23T00:54:24.410Z,17.47
2017-12-23T00:57:00.705Z,16.47
2017-12-23T00:59:35.511Z,17.63
2017-12-23T01:02:09.840Z,17.10
2017-12-23T01:04:42.400Z,17.47
2017-12-23T01:07:14.915Z,18.40
2017-12-23T01:09:54.162Z,17.43
2017-12-23T01:12:27.185Z,17.40
2017-12-23T01:15:03.559Z,15.83
2017-12-23T01:17:40.670Z,17.47
2017-12-23T01:20:13.251Z,15.97
2017-12-23T01:22:45.774Z,16.07
2017-12-23T01:25:18.284Z,16.07
2017-12-23T01:27:50.870Z,16.67
2017-12-23T01:30:23.426Z,16.10
2017-12-23T01:33:04.294Z,16.53
2017-12-23T01:35:44.590Z,16.73
2017-12-23T01:38:17.128Z,16.30
2017-12-23T01:40:49.635Z,15.13
2017-12-23T01:43:27.401Z,15.43
2017-12-23T01:46:06.327Z,15.07
2017-12-23T01:48:43.727Z,14.13
2017-12-23T01:51:16.217Z,14.80
2017-12-23T01:53:48.736Z,15.83
2017-12-23T01:56:22.650Z,16.43
2017-12-23T01:58:55.245Z,17.70
2017-12-23T02:01:27.847Z,18.03
2017-12-23T02:04:05.312Z,18.73
2017-12-23T02:06:39.416Z,20.97
2017-12-23T02:09:11.958Z,20.93
2017-12-23T02:11:44.466Z,22.40
2017-12-23T02:14:16.992Z,21.60
2017-12-23T02:16:54.446Z,22.00
2017-12-23T02:19:36.416Z,23.50
2017-12-23T02:22:09.155Z,25.60
2017-12-23T02:24:43.058Z,27.40
2017-12-23T02:27:16.057Z,24.77
2017-12-23T02:29:48.554Z,28.80
2017-12-23T02:32:22.901Z,27.73
2017-12-23T02:35:06.664Z,27.00
2017-12-23T02:37:44.499Z,25.87
2017-12-23T02:40:52.107Z,28.20
2017-12-23T02:43:41.802Z,27.00
2017-12-23T02:46:14.575Z,27.60
2017-12-23T02:49:14.104Z,29.07
2017-12-23T02:51:46.612Z,27.63
2017-12-23T02:54:27.330Z,28.03
2017-12-23T02:57:05.542Z,30.77
2017-12-23T02:59:40.781Z,30.57
2017-12-23T03:02:13.323Z,31.80
2017-12-23T03:04:45.822Z,29.27
2017-12-23T03:07:27.535Z,31.83
2017-12-23T03:10:04.192Z,32.73
2017-12-23T03:12:41.825Z,31.77
2017-12-23T03:15:14.447Z,31.03
2017-12-23T03:17:47.014Z,33.87
2017-12-23T03:20:19.525Z,35.47
2017-12-23T03:23:00.335Z,34.57
2017-12-23T03:25:40.343Z,32.33
2017-12-23T03:28:14.592Z,34.47
2017-12-23T03:30:47.146Z,33.20
2017-12-23T03:33:19.673Z,31.37
2017-12-23T03:35:59.445Z,33.03
2017-12-23T03:41:15.451Z,32.87
2017-12-23T03:43:49.243Z,33.23
2017-12-23T03:46:28.214Z,31.00
2017-12-23T03:49:11.191Z,33.47
2017-12-23T03:51:43.711Z,32.90
2017-12-23T03:54:16.219Z,36.27
2017-12-23T03:57:06.443Z,31.77
2017-12-23T03:59:42.061Z,34.47
2017-12-23T04:02:18.095Z,33.50
2017-12-23T04:04:50.618Z,31.77
2017-12-23T04:07:36.321Z,33.03
2017-12-23T04:10:14.683Z,30.97
2017-12-23T04:12:47.271Z,31.90
2017-12-23T04:15:19.851Z,30.20
2017-12-23T04:17:55.441Z,30.60
2017-12-23T04:20:34.803Z,32.80
2017-12-23T04:23:13.344Z,32.30
2017-12-23T04:25:45.854Z,32.77
2017-12-23T04:28:18.366Z,28.70
2017-12-23T04:30:51.965Z,32.40
2017-12-23T04:33:35.111Z,31.30
2017-12-23T04:36:10.719Z,31.40
2017-12-23T04:38:43.234Z,29.60
2017-12-23T04:41:15.727Z,30.03
2017-12-23T04:43:48.270Z,27.43
2017-12-23T04:46:20.770Z,26.93
2017-12-23T04:49:05.031Z,27.87
2017-12-23T04:51:41.808Z,24.83
2017-12-23T04:54:14.327Z,26.13
2017-12-23T04:56:46.821Z,26.03
2017-12-23T04:59:19.337Z,23.27
2017-12-23T05:01:53.941Z,23.17
2017-12-23T05:04:37.792Z,23.00
2017-12-23T05:07:10.653Z,21.20
2017-12-23T05:09:43.721Z,21.87
2017-12-23T05:12:16.220Z,21.83
2017-12-23T05:14:48.739Z,21.53
2017-12-23T05:17:21.270Z,21.07
2017-12-23T05:20:10.231Z,22.03
2017-12-23T05:22:43.079Z,19.53
2017-12-23T05:25:16.243Z,19.63
2017-12-23T05:27:49.155Z,21.90
2017-12-23T05:30:26.092Z,20.33
2017-12-23T05:32:59.115Z,21.17
2017-12-23T05:35:38.109Z,21.60
2017-12-23T05:38:10.959Z,21.23
2017-12-23T05:40:43.466Z,21.30
2017-12-23T05:43:16.000Z,20.70
2017-12-23T05:45:48.538Z,20.97
2017-12-23T05:48:21.038Z,22.43
2017-12-23T05:51:01.608Z,21.07
2017-12-23T05:53:41.390Z,20.87
2017-12-23T05:56:14.013Z,19.90
2017-12-23T05:58:46.555Z,21.73
2017-12-23T06:01:19.048Z,20.47
2017-12-23T06:03:56.265Z,22.10
2017-12-23T06:06:29.639Z,20.20
2017-12-23T06:09:09.653Z,19.20
2017-12-23T06:11:42.696Z,21.77
2017-12-23T06:14:15.338Z,23.13
2017-12-23T06:16:47.861Z,20.37
2017-12-23T06:19:20.386Z,19.87
2017-12-23T06:21:57.606Z,20.67
2017-12-23T06:24:30.998Z,19.83
2017-12-23T06:27:03.539Z,20.23
2017-12-23T06:29:37.378Z,18.87
2017-12-23T06:32:09.867Z,18.30
2017-12-23T06:34:42.390Z,20.50
2017-12-23T06:37:14.887Z,18.97
2017-12-23T06:39:47.412Z,19.43
2017-12-23T06:42:20.002Z,18.67
2017-12-23T06:44:53.576Z,19.93
2017-12-23T06:47:32.701Z,18.40
2017-12-23T06:50:05.355Z,18.53
2017-12-23T06:52:42.931Z,18.70
2017-12-23T06:55:15.459Z,17.20
2017-12-23T06:57:47.952Z,17.83
2017-12-23T07:00:20.504Z,18.37
2017-12-23T07:02:54.335Z,17.77
2017-12-23T07:05:32.230Z,18.00
2017-12-23T07:08:06.543Z,15.43
2017-12-23T07:10:44.095Z,16.23
2017-12-23T07:13:16.607Z,16.00
2017-12-23T07:15:50.174Z,15.30
2017-12-23T07:18:34.170Z,17.17
2017-12-23T07:21:07.414Z,13.47
2017-12-23T07:23:39.951Z,14.80
2017-12-23T07:26:12.479Z,14.07
2017-12-23T07:28:44.966Z,14.63
2017-12-23T07:31:17.481Z,14.23
2017-12-23T07:33:49.963Z,13.87
2017-12-23T07:36:22.579Z,14.50
2017-12-23T07:38:59.499Z,14.70
2017-12-23T07:41:32.828Z,12.60
2017-12-23T07:44:09.455Z,13.70
2017-12-23T07:46:42.032Z,14.57
2017-12-23T07:49:14.628Z,13.10
2017-12-23T07:51:47.127Z,12.93
2017-12-23T07:54:19.639Z,13.97
2017-12-23T07:56:52.173Z,13.67
2017-12-23T07:59:33.641Z,13.27
2017-12-23T08:02:08.730Z,13.27
2017-12-23T08:04:42.574Z,12.83
2017-12-23T08:07:15.081Z,13.37
2017-12-23T08:09:47.608Z,14.67
2017-12-23T08:12:20.104Z,13.20
2017-12-23T08:15:02.342Z,11.93
2017-12-23T08:17:38.375Z,13.53
2017-12-23T08:20:11.101Z,11.93
2017-12-23T08:22:43.668Z,12.07
2017-12-23T08:25:16.175Z,12.77
2017-12-23T08:27:48.679Z,12.40
2017-12-23T08:30:23.202Z,11.33
2017-12-23T08:33:00.849Z,11.77
2017-12-23T08:35:34.027Z,10.83
2017-12-23T08:38:06.625Z,10.70
2017-12-23T08:40:39.159Z,10.43
2017-12-23T08:43:11.724Z,11.07
2017-12-23T08:45:44.256Z,10.53
2017-12-23T08:48:16.819Z,10.33
2017-12-23T08:50:49.343Z,10.87
2017-12-23T08:53:26.272Z,11.07
2017-12-23T08:55:58.796Z,11.50
2017-12-23T08:58:33.640Z,11.23
2017-12-23T09:01:09.985Z,11.67
2017-12-23T21:16:18.849Z,34.40
2017-12-23T21:18:51.413Z,35.73
2017-12-23T21:21:23.982Z,35.73
2017-12-23T21:23:57.543Z,34.90
2017-12-23T21:26:30.281Z,34.03
2017-12-23T21:29:02.842Z,35.40
2017-12-23T21:31:35.491Z,35.87
2017-12-23T21:34:08.001Z,34.13
2017-12-23T21:36:40.522Z,33.93
2017-12-23T21:39:13.045Z,35.53
2017-12-23T21:41:45.680Z,35.70
2017-12-23T21:44:20.242Z,35.87
2017-12-23T21:46:52.795Z,35.47
2017-12-23T21:49:26.352Z,35.30
2017-12-23T21:51:58.964Z,35.67
2017-12-23T21:54:31.572Z,35.53
2017-12-23T21:57:04.074Z,36.17
2017-12-23T21:59:36.600Z,34.83
2017-12-23T22:02:09.100Z,35.57
2017-12-23T22:04:41.642Z,33.97
2017-12-23T22:07:14.169Z,35.07
2017-12-23T22:09:46.709Z,33.23
2017-12-23T22:12:19.205Z,33.10
2017-12-23T22:14:51.738Z,32.63
2017-12-23T22:17:24.233Z,34.97
2017-12-23T22:19:56.814Z,34.03
2017-12-23T22:22:29.339Z,34.33
2017-12-23T22:25:01.912Z,34.67
2017-12-23T22:27:34.447Z,33.17
2017-12-23T22:30:06.996Z,34.40
2017-12-23T22:32:39.521Z,34.43
2017-12-23T22:35:12.044Z,32.10
2017-12-23T22:37:44.548Z,33.60
2017-12-23T22:40:17.105Z,32.23
2017-12-23T22:42:49.617Z,33.67
2017-12-23T22:45:22.124Z,32.97
2017-12-23T22:47:54.618Z,32.67
2017-12-23T22:50:28.032Z,33.80
2017-12-23T22:53:00.819Z,32.77
2017-12-23T22:55:33.751Z,33.47
2017-12-23T22:58:06.277Z,30.37
2017-12-23T23:00:38.794Z,31.77
2017-12-23T23:03:11.313Z,30.13
2017-12-23T23:05:44.780Z,30.67
2017-12-23T23:08:17.296Z,31.03
2017-12-23T23:10:49.837Z,28.83
2017-12-23T23:13:22.369Z,29.50
2017-12-23T23:15:55.521Z,29.00
2017-12-23T23:18:28.045Z,29.50
2017-12-23T23:21:01.603Z,29.10
2017-12-23T23:23:34.101Z,27.37
2017-12-23T23:26:06.614Z,28.60
2017-12-23T23:28:39.103Z,25.70
2017-12-23T23:31:11.624Z,28.00
2017-12-23T23:33:44.126Z,27.73
2017-12-23T23:36:16.756Z,27.47
2017-12-23T23:38:49.258Z,26.53
2017-12-23T23:41:21.778Z,25.67
2017-12-23T23:43:54.401Z,24.80
2017-12-23T23:46:28.261Z,23.27
2017-12-23T23:49:02.193Z,25.73
2017-12-23T23:51:35.083Z,24.50
2017-12-23T23:54:07.939Z,23.73
2017-12-23T23:56:40.618Z,23.00
2017-12-23T23:59:13.549Z,23.07
